createdAt,value
2022-08-18T00:01:14.561Z,17.78
2022-08-18T00:03:57.429Z,17.75
2022-08-18T00:06:31.936Z,17.73
2022-08-18T00:09:01.219Z,17.67
2022-08-18T00:11:41.638Z,17.66
2022-08-18T00:14:22.358Z,17.67
2022-08-18T00:16:53.222Z,17.73
2022-08-18T00:19:46.894Z,17.76
2022-08-18T00:22:15.275Z,17.75
2022-08-18T00:24:47.645Z,17.76
2022-08-18T00:27:21.636Z,17.74
2022-08-18T00:29:53.066Z,17.72
2022-08-18T00:32:23.489Z,17.72
2022-08-18T00:34:53.831Z,17.70
2022-08-18T00:37:23.056Z,17.69
2022-08-18T00:39:52.360Z,17.66
2022-08-18T00:42:27.627Z,17.66
2022-08-18T00:45:01.828Z,17.65
2022-08-18T00:47:36.393Z,17.59
2022-08-18T00:50:15.381Z,17.60
2022-08-18T00:52:48.815Z,17.59
2022-08-18T00:55:19.369Z,17.59
2022-08-18T00:57:51.783Z,17.59
2022-08-18T01:00:20.105Z,17.58
2022-08-18T01:02:54.090Z,17.58
2022-08-18T01:05:28.473Z,17.57
2022-08-18T01:07:57.544Z,17.53
2022-08-18T01:10:25.771Z,17.51
2022-08-18T01:12:56.343Z,17.45
2022-08-18T01:15:30.213Z,17.43
2022-08-18T01:18:17.849Z,17.40
2022-08-18T01:21:16.660Z,17.43
2022-08-18T01:23:46.975Z,17.44
2022-08-18T01:26:14.873Z,17.36
2022-08-18T01:28:46.397Z,17.35
2022-08-18T01:31:33.027Z,17.37
2022-08-18T01:34:01.049Z,17.36
2022-08-18T01:36:29.881Z,17.35
2022-08-18T01:38:59.305Z,17.33
2022-08-18T01:41:30.693Z,17.34
2022-08-18T01:44:00.065Z,17.38
2022-08-18T01:46:29.035Z,17.39
2022-08-18T01:48:58.614Z,17.31
2022-08-18T01:51:39.944Z,17.36
2022-08-18T01:54:12.972Z,17.30
2022-08-18T01:56:43.264Z,17.31
2022-08-18T01:59:14.522Z,17.30
2022-08-18T02:01:50.348Z,17.27
2022-08-18T02:04:41.341Z,17.27
2022-08-18T02:07:14.864Z,17.24
2022-08-18T02:09:44.702Z,17.25
2022-08-18T02:12:14.023Z,17.24
2022-08-18T02:14:42.361Z,17.28
2022-08-18T02:17:12.396Z,17.28
2022-08-18T02:19:43.993Z,17.26
2022-08-18T02:22:14.125Z,17.16
2022-08-18T02:24:42.182Z,17.22
2022-08-18T02:27:13.270Z,17.17
2022-08-18T02:29:41.750Z,17.19
2022-08-18T02:32:10.083Z,17.23
2022-08-18T02:34:38.190Z,17.15
2022-08-18T02:37:06.232Z,17.13
2022-08-18T02:39:37.953Z,17.09
2022-08-18T02:42:07.348Z,16.99
2022-08-18T02:44:37.050Z,17.08
2022-08-18T02:47:05.722Z,17.10
2022-08-18T02:49:34.043Z,17.10
2022-08-18T02:52:02.121Z,17.13
2022-08-18T02:54:30.203Z,17.14
2022-08-18T02:56:58.254Z,17.14
2022-08-18T02:59:31.801Z,17.12
2022-08-18T03:02:02.949Z,17.06
2022-08-18T03:04:32.154Z,17.02
2022-08-18T03:07:04.543Z,16.98
2022-08-18T03:09:34.347Z,16.95
2022-08-18T03:12:02.577Z,16.93
2022-08-18T03:14:31.131Z,16.94
2022-08-18T03:16:59.811Z,16.93
2022-08-18T03:19:30.823Z,16.95
2022-08-18T03:22:02.599Z,16.95
2022-08-18T03:24:33.299Z,16.98
2022-08-18T03:27:05.813Z,16.97
2022-08-18T03:29:34.455Z,16.96
2022-08-18T03:32:03.188Z,16.89
2022-08-18T03:34:32.657Z,16.83
2022-08-18T03:37:01.097Z,16.90
2022-08-18T03:39:29.892Z,16.92
2022-08-18T03:42:01.545Z,16.93
2022-08-18T03:44:32.604Z,16.97
2022-08-18T03:47:02.811Z,16.98
2022-08-18T03:49:33.664Z,17.07
2022-08-18T03:52:02.760Z,17.12
2022-08-18T03:54:33.693Z,17.06
2022-08-18T03:57:02.067Z,16.94
2022-08-18T03:59:31.850Z,16.93
2022-08-18T04:02:00.600Z,16.84
2022-08-18T04:04:30.028Z,16.82
2022-08-18T04:07:04.397Z,16.81
2022-08-18T04:09:34.139Z,16.87
2022-08-18T04:12:15.241Z,16.90
2022-08-18T04:14:47.908Z,16.86
2022-08-18T04:17:16.725Z,16.77
2022-08-18T04:19:44.924Z,16.76
2022-08-18T04:22:17.524Z,16.69
2022-08-18T04:24:46.866Z,16.71
2022-08-18T04:27:14.978Z,16.71
2022-08-18T04:29:43.088Z,16.69
2022-08-18T04:32:11.097Z,16.70
2022-08-18T04:34:39.310Z,16.71
2022-08-18T04:37:09.558Z,16.71
2022-08-18T04:39:38.991Z,16.79
2022-08-18T04:42:07.317Z,16.80
2022-08-18T04:44:37.816Z,16.83
2022-08-18T04:47:07.588Z,16.89
2022-08-18T04:49:36.566Z,16.99
2022-08-18T04:52:39.740Z,17.05
2022-08-18T04:55:11.528Z,17.08
2022-08-18T04:57:39.821Z,17.13
2022-08-18T05:00:13.482Z,17.17
2022-08-18T05:02:42.369Z,17.21
2022-08-18T05:05:11.100Z,17.28
2022-08-18T05:07:45.813Z,17.31
2022-08-18T05:10:17.856Z,17.36
2022-08-18T05:12:49.038Z,17.43
2022-08-18T05:15:17.787Z,17.53
2022-08-18T05:17:46.335Z,17.61
2022-08-18T05:20:19.027Z,17.62
2022-08-18T05:22:47.617Z,17.69
2022-08-18T05:25:17.391Z,17.75
2022-08-18T05:27:45.590Z,17.83
2022-08-18T05:30:14.526Z,17.89
2022-08-18T05:32:48.125Z,17.93
2022-08-18T05:35:23.609Z,17.99
2022-08-18T05:38:09.054Z,18.05
2022-08-18T05:40:38.716Z,18.11
2022-08-18T05:43:08.247Z,18.16
2022-08-18T05:45:36.680Z,18.23
2022-08-18T05:48:05.177Z,18.25
2022-08-18T05:50:38.453Z,18.27
2022-08-18T05:53:13.706Z,18.32
2022-08-18T05:56:07.033Z,18.40
2022-08-18T05:58:38.185Z,18.48
2022-08-18T06:01:14.009Z,18.55
2022-08-18T06:03:46.970Z,18.55
2022-08-18T06:06:19.751Z,18.68
2022-08-18T06:08:53.807Z,18.64
2022-08-18T06:11:23.768Z,18.72
2022-08-18T06:13:54.220Z,18.76
2022-08-18T06:16:39.957Z,18.79
2022-08-18T06:19:24.109Z,18.81
2022-08-18T06:22:00.797Z,18.82
2022-08-18T06:24:37.403Z,18.85
2022-08-18T06:27:18.688Z,18.89
2022-08-18T06:30:04.556Z,18.89
2022-08-18T06:32:52.981Z,18.91
2022-08-18T06:35:30.419Z,18.96
2022-08-18T06:38:22.176Z,18.96
2022-08-18T06:40:51.184Z,19.01
2022-08-18T06:43:20.707Z,19.02
2022-08-18T06:45:53.036Z,19.04
2022-08-18T06:48:28.570Z,19.12
2022-08-18T06:51:01.024Z,19.17
2022-08-18T06:53:54.010Z,19.22
2022-08-18T06:56:26.948Z,19.30
2022-08-18T06:59:14.387Z,19.37
2022-08-18T07:01:43.577Z,19.35
2022-08-18T07:04:11.632Z,19.44
2022-08-18T07:06:41.437Z,19.57
2022-08-18T07:09:20.568Z,19.63
2022-08-18T07:12:05.554Z,19.61
2022-08-18T07:14:44.517Z,19.63
2022-08-18T07:17:14.957Z,19.75
2022-08-18T07:19:43.100Z,19.80
2022-08-18T07:22:17.051Z,19.99
2022-08-18T07:24:47.998Z,20.17
2022-08-18T07:27:18.417Z,20.30
2022-08-18T07:30:06.517Z,20.41
2022-08-18T07:32:41.386Z,20.44
2022-08-18T07:35:11.398Z,20.50
2022-08-18T07:37:44.336Z,20.41
2022-08-18T07:40:24.796Z,20.37
2022-08-18T07:43:01.453Z,20.08
2022-08-18T07:45:41.211Z,19.93
2022-08-18T07:48:37.653Z,19.77
2022-08-18T07:51:10.086Z,19.56
2022-08-18T07:53:54.767Z,19.39
2022-08-18T07:56:37.726Z,19.32
2022-08-18T07:59:17.298Z,19.33
2022-08-18T08:01:53.486Z,19.29
2022-08-18T08:04:30.629Z,19.18
2022-08-18T08:07:24.091Z,19.25
2022-08-18T08:10:05.889Z,19.23
2022-08-18T08:12:41.732Z,19.25
2022-08-18T08:15:26.719Z,19.25
2022-08-18T08:18:05.681Z,19.21
2022-08-18T08:20:40.214Z,19.23
2022-08-18T08:23:19.431Z,19.21
2022-08-18T08:25:57.156Z,19.19
2022-08-18T08:28:39.347Z,19.41
2022-08-18T08:31:36.174Z,19.50
2022-08-18T08:34:08.429Z,19.34
2022-08-18T08:36:42.000Z,19.29
2022-08-18T08:39:16.966Z,19.22
2022-08-18T08:41:51.275Z,19.28
2022-08-18T08:44:23.598Z,19.41
2022-08-18T08:46:57.443Z,19.50
2022-08-18T08:52:18.787Z,19.89
2022-08-18T08:54:53.613Z,20.08
2022-08-18T08:57:26.962Z,19.79
2022-08-18T08:59:57.837Z,19.95
2022-08-18T09:02:47.731Z,20.18
2022-08-18T09:05:23.076Z,20.30
2022-08-18T09:08:26.519Z,20.15
2022-08-18T09:11:30.572Z,20.28
2022-08-18T09:14:17.519Z,20.47
2022-08-18T09:16:55.789Z,20.38
2022-08-18T09:19:43.593Z,20.48
2022-08-18T09:22:20.408Z,20.56
2022-08-18T09:24:52.761Z,20.70
2022-08-18T09:27:53.740Z,20.69
2022-08-18T09:30:47.859Z,20.64
2022-08-18T09:33:34.765Z,20.70
2022-08-18T09:36:21.304Z,20.59
2022-08-18T09:42:11.214Z,20.58
2022-08-18T09:45:02.597Z,20.72
2022-08-18T09:48:10.126Z,20.78
2022-08-18T09:50:54.144Z,20.88
2022-08-18T09:53:53.362Z,21.12
2022-08-18T09:57:06.964Z,21.37
2022-08-18T09:59:59.064Z,21.61
2022-08-18T10:03:12.143Z,21.92
2022-08-18T10:05:42.439Z,21.96
2022-08-18T10:08:42.863Z,21.84
2022-08-18T10:11:25.100Z,21.59
2022-08-18T10:14:09.767Z,21.56
2022-08-18T10:17:16.061Z,21.67
2022-08-18T10:19:51.941Z,21.89
2022-08-18T10:22:39.362Z,21.90
2022-08-18T10:25:22.778Z,21.89
2022-08-18T10:27:55.315Z,21.91
2022-08-18T10:31:06.282Z,21.77
2022-08-18T10:34:24.672Z,21.78
2022-08-18T10:36:59.066Z,21.68
2022-08-18T10:39:44.542Z,21.58
2022-08-18T10:42:19.256Z,21.72
2022-08-18T10:44:50.010Z,21.63
2022-08-18T10:47:24.856Z,21.78
2022-08-18T10:49:55.127Z,21.85
2022-08-18T10:52:46.241Z,22.07
2022-08-18T10:55:48.407Z,22.12
2022-08-18T10:58:51.572Z,22.32
2022-08-18T11:01:40.913Z,22.39
2022-08-18T11:04:23.007Z,22.46
2022-08-18T11:07:11.819Z,22.56
2022-08-18T11:09:45.981Z,22.55
2022-08-18T11:12:53.823Z,22.72
2022-08-18T11:15:35.774Z,22.61
2022-08-18T11:18:30.316Z,22.79
2022-08-18T11:21:42.297Z,22.98
2022-08-18T11:24:16.341Z,22.85
2022-08-18T11:26:52.512Z,22.93
2022-08-18T11:29:26.845Z,22.81
2022-08-18T11:32:01.911Z,23.07
2022-08-18T11:34:37.846Z,23.25
2022-08-18T11:37:20.837Z,23.48
2022-08-18T11:39:52.732Z,23.51
2022-08-18T11:42:27.998Z,23.45
2022-08-18T11:44:56.545Z,23.63
2022-08-18T11:47:28.029Z,23.91
2022-08-18T11:50:08.359Z,24.17
2022-08-18T11:52:53.984Z,24.02
2022-08-18T11:55:31.799Z,23.95
2022-08-18T11:58:00.727Z,23.75
2022-08-18T12:00:55.239Z,24.03
2022-08-18T12:03:32.232Z,24.38
2022-08-18T12:06:19.384Z,24.28
2022-08-18T12:08:57.077Z,24.61
2022-08-18T12:11:30.853Z,24.37
2022-08-18T12:14:31.187Z,24.35
2022-08-18T12:16:54.967Z,24.59
2022-08-18T12:19:24.746Z,24.16
2022-08-18T12:21:57.220Z,23.97
2022-08-18T12:24:34.084Z,24.28
2022-08-18T12:27:20.891Z,24.06
2022-08-18T12:29:50.425Z,24.42
2022-08-18T12:32:50.047Z,24.59
2022-08-18T12:35:11.321Z,24.74
2022-08-18T12:37:58.969Z,24.99
2022-08-18T12:40:28.767Z,25.34
2022-08-18T12:42:58.174Z,26.32
2022-08-18T12:45:27.209Z,27.60
2022-08-18T12:47:55.552Z,28.67
2022-08-18T12:50:31.492Z,29.23
2022-08-18T12:53:03.257Z,29.99
2022-08-18T12:55:36.170Z,30.42
2022-08-18T12:58:13.082Z,30.72
2022-08-18T13:00:41.800Z,31.69
2022-08-18T13:03:10.752Z,31.31
2022-08-18T13:05:38.784Z,30.87
2022-08-18T13:08:30.788Z,29.56
2022-08-18T13:11:14.727Z,28.32
2022-08-18T13:13:45.602Z,28.72
2022-08-18T13:16:30.666Z,29.24
2022-08-18T13:19:05.973Z,29.83
2022-08-18T13:21:40.983Z,30.41
2022-08-18T13:24:09.806Z,30.40
2022-08-18T13:26:45.621Z,29.72
2022-08-18T13:29:17.488Z,30.51
2022-08-18T13:31:55.961Z,30.41
2022-08-18T13:34:27.579Z,30.45
2022-08-18T13:36:58.537Z,28.15
2022-08-18T13:39:34.123Z,26.76
2022-08-18T13:42:21.632Z,26.43
2022-08-18T13:44:55.063Z,26.45
2022-08-18T13:47:29.189Z,26.69
2022-08-18T13:49:59.816Z,26.83
2022-08-18T13:52:34.758Z,26.29
2022-08-18T13:55:08.294Z,26.47
2022-08-18T13:57:39.497Z,27.63
2022-08-18T14:00:18.391Z,28.73
2022-08-18T14:02:57.178Z,29.41
2022-08-18T14:05:36.706Z,29.88
2022-08-18T14:08:19.253Z,29.96
2022-08-18T14:10:50.255Z,28.54
2022-08-18T14:13:20.894Z,28.53
2022-08-18T14:15:56.108Z,30.02
2022-08-18T14:18:29.068Z,31.15
2022-08-18T14:21:16.936Z,30.91
2022-08-18T14:24:10.612Z,32.38
2022-08-18T14:26:51.594Z,33.15
2022-08-18T14:29:44.776Z,30.66
2022-08-18T14:32:13.203Z,29.27
2022-08-18T14:34:50.827Z,28.18
2022-08-18T14:37:19.551Z,27.25
2022-08-18T14:39:50.417Z,26.29
2022-08-18T14:42:41.290Z,26.20
2022-08-18T14:45:26.686Z,26.31
2022-08-18T14:48:01.797Z,26.05
2022-08-18T14:50:30.077Z,25.71
2022-08-18T14:52:59.058Z,26.31
2022-08-18T14:55:27.600Z,27.91
2022-08-18T14:57:59.285Z,28.01
2022-08-18T15:00:29.072Z,28.53
2022-08-18T15:02:59.579Z,29.16
2022-08-18T15:05:33.807Z,28.56
2022-08-18T15:08:04.526Z,27.81
2022-08-18T15:10:33.580Z,28.09
2022-08-18T15:13:02.106Z,26.44
2022-08-18T15:15:50.655Z,25.81
2022-08-18T15:18:22.700Z,25.95
2022-08-18T15:21:19.374Z,26.30
2022-08-18T15:24:20.136Z,26.02
2022-08-18T15:26:51.793Z,26.40
2022-08-18T15:29:28.046Z,27.03
2022-08-18T15:32:02.425Z,26.87
2022-08-18T15:34:46.143Z,27.80
2022-08-18T15:37:19.735Z,29.08
2022-08-18T15:39:55.582Z,29.41
2022-08-18T15:42:24.600Z,30.42
2022-08-18T15:44:53.717Z,29.54
2022-08-18T15:47:24.969Z,28.36
2022-08-18T15:49:54.987Z,27.41
2022-08-18T15:52:26.177Z,27.21
2022-08-18T15:54:57.022Z,28.31
2022-08-18T15:57:39.673Z,28.13
2022-08-18T16:00:12.259Z,28.47
2022-08-18T16:02:48.390Z,28.71
2022-08-18T16:05:17.167Z,28.47
2022-08-18T16:07:47.685Z,28.81
2022-08-18T16:10:17.525Z,28.34
2022-08-18T16:12:46.403Z,27.23
2022-08-18T16:15:19.558Z,26.54
2022-08-18T16:17:50.572Z,26.82
2022-08-18T16:20:19.659Z,27.61
2022-08-18T16:22:49.137Z,27.83
2022-08-18T16:25:17.883Z,28.63
2022-08-18T16:27:47.775Z,28.33
2022-08-18T16:30:19.002Z,26.09
2022-08-18T16:32:47.393Z,26.37
2022-08-18T16:35:15.955Z,26.85
2022-08-18T16:37:44.323Z,26.66
2022-08-18T16:40:14.527Z,27.25
2022-08-18T16:42:42.628Z,27.51
2022-08-18T16:45:13.247Z,26.77
2022-08-18T16:47:41.784Z,26.14
2022-08-18T16:50:12.186Z,26.97
2022-08-18T16:52:40.373Z,26.61
2022-08-18T16:55:12.228Z,25.93
2022-08-18T16:58:01.065Z,25.99
2022-08-18T17:00:51.500Z,26.20
2022-08-18T17:03:40.713Z,26.49
2022-08-18T17:06:10.907Z,26.48
2022-08-18T17:08:40.015Z,26.42
2022-08-18T17:11:10.818Z,27.06
2022-08-18T17:13:40.716Z,26.38
2022-08-18T17:16:09.214Z,25.69
2022-08-18T17:18:37.825Z,25.61
2022-08-18T17:21:07.763Z,25.19
2022-08-18T17:23:38.890Z,24.56
2022-08-18T17:26:08.142Z,24.15
2022-08-18T17:28:50.188Z,23.90
2022-08-18T17:31:20.303Z,23.80
2022-08-18T17:33:48.986Z,23.40
2022-08-18T17:36:24.088Z,23.03
2022-08-18T17:38:58.415Z,23.02
2022-08-18T17:41:27.745Z,22.98
2022-08-18T17:44:00.895Z,22.81
2022-08-18T17:46:36.713Z,22.63
2022-08-18T17:49:12.081Z,22.22
2022-08-18T17:51:45.679Z,22.29
2022-08-18T17:54:24.505Z,22.03
2022-08-18T17:56:56.765Z,21.98
2022-08-18T17:59:42.965Z,21.84
2022-08-18T18:02:29.449Z,21.74
2022-08-18T18:04:59.553Z,21.64
2022-08-18T18:07:30.121Z,21.64
2022-08-18T18:10:01.549Z,21.38
2022-08-18T18:12:33.333Z,21.31
2022-08-18T18:15:05.998Z,21.41
2022-08-18T18:17:37.681Z,21.35
2022-08-18T18:20:34.504Z,21.20
2022-08-18T18:23:19.706Z,20.95
2022-08-18T18:25:50.306Z,20.93
2022-08-18T18:28:29.363Z,20.84
2022-08-18T18:31:01.223Z,20.63
2022-08-18T18:33:31.792Z,20.43
2022-08-18T18:36:10.712Z,20.33
2022-08-18T18:38:46.034Z,20.34
2022-08-18T18:41:23.615Z,20.37
2022-08-18T18:43:52.432Z,20.39
2022-08-18T18:46:32.149Z,20.37
2022-08-18T18:49:13.531Z,20.23
2022-08-18T18:51:51.117Z,20.21
2022-08-18T18:54:49.596Z,20.20
2022-08-18T18:57:32.025Z,20.17
2022-08-18T19:00:18.256Z,20.14
2022-08-18T19:03:09.133Z,20.03
2022-08-18T19:05:45.743Z,20.01
2022-08-18T19:08:28.338Z,19.98
2022-08-18T19:11:05.315Z,19.93
2022-08-18T19:13:39.371Z,19.88
2022-08-18T19:16:24.086Z,19.89
2022-08-18T19:19:35.120Z,19.71
2022-08-18T19:22:03.459Z,19.74
2022-08-18T19:24:39.088Z,19.56
2022-08-18T19:27:11.633Z,19.57
2022-08-18T19:29:44.622Z,19.56
2022-08-18T19:32:17.569Z,19.52
2022-08-18T19:34:52.541Z,19.50
2022-08-18T19:37:32.416Z,19.53
2022-08-18T19:40:09.320Z,19.46
2022-08-18T19:42:42.468Z,19.47
2022-08-18T19:45:25.993Z,19.42
2022-08-18T19:48:03.299Z,19.39
2022-08-18T19:50:36.201Z,19.35
2022-08-18T19:53:20.255Z,19.38
2022-08-18T19:56:04.639Z,19.37
2022-08-18T19:59:19.575Z,19.38
2022-08-18T20:01:58.886Z,19.40
2022-08-18T20:04:45.103Z,19.30
2022-08-18T20:07:33.054Z,19.29
2022-08-18T20:10:28.957Z,19.22
2022-08-18T20:13:13.056Z,19.18
2022-08-18T20:16:24.987Z,19.04
2022-08-18T20:18:57.725Z,19.04
2022-08-18T20:21:45.326Z,19.05
2022-08-18T20:24:50.034Z,19.00
2022-08-18T20:27:27.625Z,19.00
2022-08-18T20:30:25.843Z,19.00
2022-08-18T20:33:17.595Z,18.99
2022-08-18T20:35:53.660Z,18.97
2022-08-18T20:38:34.158Z,18.86
2022-08-18T20:41:42.296Z,18.91
2022-08-18T20:44:50.859Z,18.92
2022-08-18T20:47:38.073Z,18.88
2022-08-18T20:50:34.814Z,18.84
2022-08-18T20:53:12.920Z,18.88
2022-08-18T20:55:55.107Z,18.88
2022-08-18T20:58:27.909Z,18.85
2022-08-18T21:00:58.222Z,18.87
2022-08-18T21:03:37.479Z,18.75
2022-08-18T21:06:06.811Z,18.81
2022-08-18T21:08:37.673Z,18.80
2022-08-18T21:11:09.388Z,18.78
2022-08-18T21:13:51.232Z,18.77
2022-08-18T21:16:38.698Z,18.68
2022-08-18T21:19:13.822Z,18.65
2022-08-18T21:21:46.820Z,18.61
2022-08-18T21:24:29.606Z,18.48
2022-08-18T21:27:00.501Z,18.52
2022-08-18T21:29:39.196Z,18.52
2022-08-18T21:32:20.084Z,18.51
2022-08-18T21:34:49.175Z,18.48
2022-08-18T21:37:19.181Z,18.33
2022-08-18T21:39:53.198Z,18.47
2022-08-18T21:42:25.979Z,18.43
2022-08-18T21:45:00.658Z,18.33
2022-08-18T21:47:31.573Z,18.33
2022-08-18T21:50:02.929Z,18.31
2022-08-18T21:52:32.286Z,18.26
2022-08-18T21:55:03.501Z,18.31
2022-08-18T21:57:52.030Z,18.27
2022-08-18T22:00:29.570Z,18.36
2022-08-18T22:03:18.930Z,18.36
2022-08-18T22:05:59.040Z,18.30
2022-08-18T22:08:30.481Z,18.32
2022-08-18T22:11:59.995Z,18.30
2022-08-18T22:14:36.105Z,18.24
2022-08-18T22:17:34.970Z,18.18
2022-08-18T22:20:37.523Z,18.16
2022-08-18T22:23:28.097Z,18.17
2022-08-18T22:26:06.987Z,18.13
2022-08-18T22:28:36.789Z,18.13
2022-08-18T22:31:05.824Z,18.16
2022-08-18T22:33:35.233Z,18.15
2022-08-18T22:36:04.474Z,18.12
2022-08-18T22:38:32.705Z,18.09
2022-08-18T22:41:01.542Z,18.07
2022-08-18T22:43:29.697Z,18.08
2022-08-18T22:45:57.739Z,18.10
2022-08-18T22:48:25.908Z,18.11
2022-08-18T22:50:55.319Z,18.13
2022-08-18T22:53:23.349Z,18.15
2022-08-18T22:55:53.115Z,18.10
2022-08-18T22:58:21.217Z,18.15
2022-08-18T23:01:05.178Z,18.19
2022-08-18T23:03:41.588Z,18.26
2022-08-18T23:06:12.236Z,18.28
2022-08-18T23:08:54.269Z,18.32
2022-08-18T23:11:25.210Z,18.38
2022-08-18T23:13:53.993Z,18.45
2022-08-18T23:16:31.848Z,18.46
2022-08-18T23:19:01.991Z,18.50
2022-08-18T23:21:34.863Z,18.48
2022-08-18T23:24:05.527Z,18.50
2022-08-18T23:26:34.049Z,18.58
2022-08-18T23:29:02.447Z,18.63
2022-08-18T23:31:31.456Z,18.60
2022-08-18T23:34:00.569Z,18.66
2022-08-18T23:36:29.022Z,18.62
2022-08-18T23:38:58.873Z,18.56
2022-08-18T23:41:27.109Z,18.49
2022-08-18T23:43:55.321Z,18.52
2022-08-18T23:46:26.145Z,18.48
2022-08-18T23:48:54.682Z,18.48
2022-08-18T23:51:28.813Z,18.47
2022-08-18T23:53:59.993Z,18.46
2022-08-18T23:56:28.932Z,18.41
2022-08-18T23:58:58.149Z,18.43
